Time;durP1;ratioP1;P1;durP2;ratioP2;P2;SDS_P1;SDS_P2;PMS_P1;PMS_P2;Temp;Humidity;BMP_temperature;BMP_pressure;BME280_temperature;BME280_humidity;BME280_pressure;Samples;Min_cycle;Max_cycle;Signal;HPM_P1;HPM_P2
2023/08/04 00:00:42;;;;;;;6.83;5.27;;;26.10;77.60;;;;;;5085308;27;88047;-59
2023/08/04 00:03:11;;;;;;;9.27;5.63;;;26.00;77.20;;;;;;5082777;27;89657;-60
2023/08/04 00:05:40;;;;;;;10.13;5.90;;;26.00;71.90;;;;;;5085288;27;89278;-59
2023/08/04 00:08:08;;;;;;;8.07;5.17;;;26.00;74.10;;;;;;5083691;27;88873;-59
2023/08/04 00:10:37;;;;;;;9.73;5.90;;;26.00;72.80;;;;;;5100961;27;87618;-59
2023/08/04 00:13:05;;;;;;;10.47;6.33;;;26.00;73.20;;;;;;5090890;27;88534;-59
2023/08/04 00:15:33;;;;;;;15.43;6.80;;;26.00;73.10;;;;;;5087067;27;87956;-59
2023/08/04 00:18:03;;;;;;;11.50;5.27;;;26.00;73.20;;;;;;5083230;27;88653;-59
2023/08/04 00:20:31;;;;;;;9.83;5.33;;;26.00;72.70;;;;;;5100007;27;87493;-59
2023/08/04 00:23:01;;;;;;;9.00;5.70;;;26.00;73.50;;;;;;5098924;27;89523;-59
2023/08/04 00:25:29;;;;;;;6.70;5.20;;;26.00;74.40;;;;;;5098189;27;90190;-59
2023/08/04 00:27:57;;;;;;;9.17;5.70;;;25.90;74.40;;;;;;5083308;27;89745;-59
2023/08/04 00:30:26;;;;;;;8.97;5.70;;;26.00;73.00;;;;;;5084403;27;87589;-59
2023/08/04 00:32:54;;;;;;;8.77;5.70;;;26.00;74.60;;;;;;5083231;27;89497;-59
2023/08/04 00:35:23;;;;;;;10.20;5.07;;;26.00;74.30;;;;;;5086023;27;89451;-59
2023/08/04 00:37:51;;;;;;;8.33;4.83;;;25.90;75.20;;;;;;5082642;27;88749;-59
2023/08/04 00:40:21;;;;;;;11.40;4.90;;;25.90;75.20;;;;;;5082970;27;87674;-59
2023/08/04 00:42:49;;;;;;;8.33;4.50;;;26.00;72.80;;;;;;5082384;27;89511;-59
2023/08/04 00:45:17;;;;;;;7.50;5.13;;;25.90;73.00;;;;;;5083148;27;89200;-59
2023/08/04 00:47:46;;;;;;;10.17;4.97;;;25.90;73.60;;;;;;5083028;27;88864;-60
2023/08/04 00:50:14;;;;;;;5.37;4.10;;;25.90;74.20;;;;;;5081567;27;88061;-59
2023/08/04 00:52:44;;;;;;;8.77;4.77;;;26.00;75.50;;;;;;5082685;27;89715;-59
2023/08/04 00:55:13;;;;;;;9.27;3.90;;;26.00;75.10;;;;;;5081451;27;89080;-59
2023/08/04 00:57:43;;;;;;;6.63;4.00;;;26.00;73.60;;;;;;5083287;27;88788;-59
2023/08/04 01:00:12;;;;;;;7.80;4.67;;;25.90;74.20;;;;;;5092276;27;87679;-59
2023/08/04 01:02:40;;;;;;;6.03;4.00;;;25.90;75.50;;;;;;5083519;27;89711;-59
2023/08/04 01:05:09;;;;;;;8.07;4.20;;;25.90;73.80;;;;;;5081696;27;89124;-59
2023/08/04 01:07:41;;;;;;;6.70;4.47;;;25.90;75.20;;;;;;5089680;27;88881;-59
2023/08/04 01:10:12;;;;;;;10.80;4.03;;;25.90;76.10;;;;;;5092200;27;87363;-59
2023/08/04 01:12:51;;;;;;;6.40;3.53;;;25.90;76.10;;;;;;5083547;27;89761;-59
2023/08/04 01:15:19;;;;;;;6.90;3.50;;;25.90;76.60;;;;;;5092922;27;89906;-59
2023/08/04 01:17:47;;;;;;;8.83;4.43;;;25.90;75.60;;;;;;5092901;27;89548;-59
2023/08/04 01:20:16;;;;;;;5.27;3.50;;;25.90;75.60;;;;;;5068056;27;87721;-59
2023/08/04 01:22:45;;;;;;;5.63;4.00;;;25.90;75.90;;;;;;5095872;27;88575;-60
2023/08/04 01:25:13;;;;;;;5.97;4.37;;;25.80;74.70;;;;;;5095986;27;89035;-59
2023/08/04 01:27:43;;;;;;;6.50;3.77;;;25.90;75.80;;;;;;5093386;27;88506;-59
2023/08/04 01:30:16;;;;;;;7.27;4.57;;;25.90;75.30;;;;;;5086336;27;87942;-59
2023/08/04 01:32:44;;;;;;;7.50;3.23;;;25.90;75.60;;;;;;5072339;27;89551;-59
2023/08/04 01:35:13;;;;;;;6.43;3.80;;;25.90;76.20;;;;;;5085616;27;89200;-59
2023/08/04 01:37:43;;;;;;;4.07;2.77;;;25.90;77.10;;;;;;5091793;27;89405;-59
2023/08/04 01:40:13;;;;;;;4.60;3.80;;;25.90;77.00;;;;;;5065807;27;88095;-59
2023/08/04 01:42:42;;;;;;;9.20;3.40;;;25.90;77.10;;;;;;5075850;27;89797;-60
2023/08/04 01:45:11;;;;;;;6.40;3.47;;;25.90;77.90;;;;;;5080716;27;89110;-59
2023/08/04 01:47:39;;;;;;;5.53;3.00;;;25.80;77.80;;;;;;5073664;27;88773;-59
2023/08/04 01:50:09;;;;;;;5.07;3.53;;;26.00;79.30;;;;;;5080188;27;87581;-59
2023/08/04 01:52:37;;;;;;;4.53;3.53;;;25.90;80.10;;;;;;5072490;27;89734;-59
2023/08/04 01:55:06;;;;;;;4.50;2.97;;;25.80;68.90;;;;;;5073095;27;89229;-59
2023/08/04 01:57:36;;;;;;;5.50;3.83;;;25.80;70.80;;;;;;5075182;27;89010;-59
2023/08/04 02:00:05;;;;;;;4.17;3.13;;;25.80;73.90;;;;;;5073860;27;87544;-59
2023/08/04 02:02:33;;;;;;;3.77;3.03;;;25.80;76.50;;;;;;5077272;27;89606;-59
2023/08/04 02:05:02;;;;;;;6.87;3.40;;;;;;;;;;5076152;27;90048;-59
2023/08/04 02:07:30;;;;;;;4.67;3.10;;;25.80;71.00;;;;;;5072555;27;89858;-59
2023/08/04 02:09:58;;;;;;;4.53;2.90;;;25.80;66.50;;;;;;5064201;27;87977;-59
2023/08/04 02:12:27;;;;;;;5.40;2.67;;;25.80;67.80;;;;;;5066150;27;89788;-59
2023/08/04 02:14:56;;;;;;;6.63;2.80;;;25.80;71.30;;;;;;5067745;27;88862;-59
2023/08/04 02:17:25;;;;;;;4.90;2.80;;;25.80;71.20;;;;;;5078153;27;88848;-59
2023/08/04 02:19:53;;;;;;;3.57;2.40;;;25.80;69.70;;;;;;5068410;27;87625;-59
2023/08/04 02:22:21;;;;;;;8.13;3.30;;;25.80;75.10;;;;;;5075665;27;89786;-59
2023/08/04 02:24:50;;;;;;;3.70;2.87;;;25.80;73.60;;;;;;5080676;27;88805;-59
2023/08/04 02:27:18;;;;;;;4.77;2.70;;;25.80;71.90;;;;;;5076967;27;88910;-59
2023/08/04 02:29:47;;;;;;;4.83;2.77;;;25.80;73.20;;;;;;5080368;27;87990;-59
2023/08/04 02:32:16;;;;;;;4.07;2.27;;;25.80;72.10;;;;;;5072229;27;89661;-59
2023/08/04 02:34:45;;;;;;;5.63;2.70;;;25.80;72.90;;;;;;5074676;27;89185;-59
2023/08/04 02:37:13;;;;;;;3.20;2.10;;;25.80;74.00;;;;;;5069163;27;88807;-59
2023/08/04 02:39:41;;;;;;;3.30;2.00;;;25.80;75.70;;;;;;5078346;27;87889;-59
2023/08/04 02:42:09;;;;;;;4.83;2.13;;;25.80;73.50;;;;;;5074784;27;89724;-59
2023/08/04 02:44:38;;;;;;;3.27;2.50;;;25.80;75.60;;;;;;5070371;27;87930;-59
2023/08/04 02:47:07;;;;;;;3.10;2.20;;;25.70;74.00;;;;;;5074795;27;88933;-59
2023/08/04 02:49:36;;;;;;;4.23;2.50;;;25.80;83.60;;;;;;5067045;27;87710;-59
2023/08/04 02:52:14;;;;;;;2.97;2.63;;;25.80;74.40;;;;;;5063030;27;89639;-59
2023/08/04 02:54:42;;;;;;;3.93;2.10;;;25.80;81.10;;;;;;5076718;27;92961;-59
2023/08/04 02:57:10;;;;;;;6.37;2.47;;;25.80;70.90;;;;;;5075769;27;89628;-60
2023/08/04 02:59:39;;;;;;;2.03;1.83;;;25.80;71.10;;;;;;5064888;27;87648;-60
2023/08/04 03:02:07;;;;;;;5.10;2.40;;;;;;;;;;5070096;27;92229;-59
2023/08/04 03:04:39;;;;;;;3.07;2.50;;;25.80;61.50;;;;;;5076398;27;89156;-59
2023/08/04 03:07:07;;;;;;;3.70;2.63;;;25.80;64.70;;;;;;5077676;27;88919;-59
2023/08/04 03:09:35;;;;;;;3.00;1.60;;;25.80;66.30;;;;;;5067601;27;87609;-59
2023/08/04 03:12:04;;;;;;;3.70;2.07;;;25.70;67.10;;;;;;5073932;27;88362;-59
2023/08/04 03:14:33;;;;;;;2.80;1.83;;;25.70;70.20;;;;;;5064150;27;89337;-59
2023/08/04 03:17:01;;;;;;;3.47;2.20;;;25.70;62.90;;;;;;5061144;27;88834;-59
2023/08/04 03:19:29;;;;;;;3.10;2.50;;;25.70;62.60;;;;;;5060399;27;89858;-59
2023/08/04 03:21:59;;;;;;;2.90;1.97;;;25.80;64.00;;;;;;5066607;27;89662;-59
2023/08/04 03:24:31;;;;;;;2.27;1.70;;;25.70;64.40;;;;;;5072357;27;89302;-59
2023/08/04 03:26:59;;;;;;;2.67;1.90;;;25.80;64.70;;;;;;5065515;27;88628;-59
2023/08/04 03:29:27;;;;;;;2.50;1.63;;;25.70;64.70;;;;;;5071236;27;87542;-59
2023/08/04 03:31:56;;;;;;;2.43;2.10;;;25.70;65.30;;;;;;5075161;27;90232;-59
2023/08/04 03:34:24;;;;;;;3.50;1.87;;;25.70;73.10;;;;;;5069862;27;89448;-59
2023/08/04 03:36:52;;;;;;;3.73;1.80;;;25.80;77.10;;;;;;5061855;27;87588;-59
2023/08/04 03:39:22;;;;;;;2.37;1.63;;;25.70;73.40;;;;;;5075582;27;87848;-59
2023/08/04 03:41:50;;;;;;;3.57;1.60;;;25.70;75.40;;;;;;5071075;27;88486;-60
2023/08/04 03:44:18;;;;;;;2.17;1.80;;;25.70;71.70;;;;;;5071279;27;90183;-59
2023/08/04 03:46:46;;;;;;;3.00;1.80;;;25.70;71.80;;;;;;5077194;27;89440;-59
2023/08/04 03:49:14;;;;;;;2.20;1.57;;;25.70;78.50;;;;;;5077841;27;87704;-59
2023/08/04 03:51:43;;;;;;;2.03;1.70;;;25.70;68.10;;;;;;5077926;27;89683;-59
2023/08/04 03:54:11;;;;;;;2.97;1.60;;;25.70;68.40;;;;;;5070017;27;89076;-59
2023/08/04 03:56:40;;;;;;;2.33;1.50;;;25.70;68.90;;;;;;5075420;27;88700;-59
2023/08/04 03:59:11;;;;;;;1.90;1.30;;;25.70;69.60;;;;;;5080075;27;87736;-60
2023/08/04 04:01:40;;;;;;;1.60;1.30;;;25.70;70.70;;;;;;5075949;27;89929;-59
2023/08/04 04:04:08;;;;;;;2.37;1.77;;;25.70;66.90;;;;;;5068600;27;88804;-59
2023/08/04 04:06:36;;;;;;;1.57;1.37;;;25.70;67.80;;;;;;5080463;27;88926;-59
2023/08/04 04:09:04;;;;;;;1.93;1.30;;;25.80;68.90;;;;;;5074491;27;89136;-59
2023/08/04 04:11:33;;;;;;;4.53;1.60;;;;;;;;;;5078843;27;89459;-59
2023/08/04 04:14:02;;;;;;;2.30;1.43;;;25.70;60.00;;;;;;5071953;27;88974;-59
2023/08/04 04:16:30;;;;;;;1.60;1.40;;;25.70;67.60;;;;;;5081054;27;88971;-59
2023/08/04 04:18:59;;;;;;;1.80;1.20;;;25.70;69.30;;;;;;5080575;27;88365;-59
2023/08/04 04:21:27;;;;;;;1.20;1.10;;;25.70;69.00;;;;;;5065851;27;89604;-59
2023/08/04 04:23:55;;;;;;;1.50;1.20;;;25.70;70.60;;;;;;5073062;27;87842;-59
2023/08/04 04:26:24;;;;;;;2.20;1.50;;;25.70;77.90;;;;;;5082507;27;91536;-60
2023/08/04 04:28:52;;;;;;;3.20;1.43;;;25.70;69.60;;;;;;5080697;27;87610;-59
2023/08/04 04:31:22;;;;;;;2.70;1.80;;;25.70;71.70;;;;;;5073353;27;89415;-59
2023/08/04 04:33:50;;;;;;;2.33;1.30;;;25.70;76.80;;;;;;5070100;27;90124;-59
2023/08/04 04:36:18;;;;;;;2.97;1.30;;;25.70;74.80;;;;;;5081515;27;89682;-59
2023/08/04 04:38:46;;;;;;;1.93;1.47;;;25.70;68.10;;;;;;5076951;27;87600;-59
2023/08/04 04:41:14;;;;;;;2.20;1.27;;;25.70;68.60;;;;;;5082782;27;89676;-59
2023/08/04 04:43:43;;;;;;;2.30;1.30;;;25.60;69.10;;;;;;5081565;27;87708;-59
2023/08/04 04:46:11;;;;;;;2.70;1.40;;;25.60;69.70;;;;;;5078367;27;88956;-59
2023/08/04 04:48:41;;;;;;;2.47;1.40;;;25.60;70.20;;;;;;5073673;27;89339;-59
2023/08/04 04:51:11;;;;;;;2.43;1.23;;;25.70;72.60;;;;;;5081622;27;89257;-59
2023/08/04 04:53:39;;;;;;;1.20;1.10;;;25.60;75.10;;;;;;5080661;27;89232;-59
2023/08/04 04:56:07;;;;;;;1.83;1.60;;;25.70;69.60;;;;;;5079714;27;88906;-59
2023/08/04 04:58:35;;;;;;;1.70;1.40;;;25.60;69.00;;;;;;5083120;27;87806;-59
2023/08/04 05:01:03;;;;;;;1.27;1.17;;;25.70;69.50;;;;;;5069580;27;89530;-59
2023/08/04 05:03:32;;;;;;;3.73;1.30;;;25.60;69.80;;;;;;5085850;27;89194;-59
2023/08/04 05:06:01;;;;;;;3.70;1.50;;;25.60;70.30;;;;;;5079867;27;88802;-59
2023/08/04 05:08:30;;;;;;;1.37;1.20;;;25.60;70.70;;;;;;5071897;27;87531;-59
2023/08/04 05:10:58;;;;;;;2.93;1.43;;;25.60;72.20;;;;;;5071553;27;89636;-59
2023/08/04 05:13:26;;;;;;;2.77;1.43;;;25.60;73.00;;;;;;5066152;27;89259;-59
2023/08/04 05:15:54;;;;;;;3.70;1.57;;;25.60;74.40;;;;;;5061198;27;88721;-59
2023/08/04 05:18:22;;;;;;;1.33;1.23;;;25.60;78.00;;;;;;5072753;27;88847;-59
2023/08/04 05:20:50;;;;;;;2.17;1.10;;;25.60;77.20;;;;;;5070559;27;89639;-59
2023/08/04 05:23:20;;;;;;;1.93;1.20;;;25.60;73.00;;;;;;5065554;27;90231;-59
2023/08/04 05:25:48;;;;;;;1.43;1.13;;;25.60;61.40;;;;;;5082046;27;89667;-59
2023/08/04 05:28:21;;;;;;;2.20;1.33;;;25.60;62.50;;;;;;5083907;27;87612;-60
2023/08/04 05:30:49;;;;;;;1.87;1.33;;;25.60;63.30;;;;;;5086524;27;89607;-60
2023/08/04 05:33:17;;;;;;;1.83;1.10;;;25.60;63.60;;;;;;5072429;27;89208;-58
2023/08/04 05:35:46;;;;;;;1.40;1.30;;;25.60;64.50;;;;;;5068435;27;87980;-59
2023/08/04 05:38:14;;;;;;;2.13;1.63;;;25.50;65.10;;;;;;5081978;27;87464;-57
2023/08/04 05:40:44;;;;;;;1.60;1.10;;;25.60;66.60;;;;;;5081467;27;89533;-62
2023/08/04 05:43:13;;;;;;;2.07;1.33;;;25.70;68.20;;;;;;5075728;27;87931;-60
2023/08/04 05:45:41;;;;;;;5.50;2.03;;;25.70;82.60;;;;;;5067170;27;88528;-61
2023/08/04 05:48:09;;;;;;;4.17;1.83;;;25.70;82.10;;;;;;5065013;27;87893;-60
2023/08/04 05:50:38;;;;;;;5.87;1.67;;;25.70;82.60;;;;;;5080081;27;88631;-60
2023/08/04 05:53:06;;;;;;;2.47;1.27;;;25.70;83.80;;;;;;5077871;27;89361;-60
2023/08/04 05:55:34;;;;;;;2.07;1.53;;;25.80;85.50;;;;;;5072143;27;88851;-58
2023/08/04 05:58:05;;;;;;;3.93;1.90;;;25.70;83.90;;;;;;5067071;27;87716;-61
2023/08/04 06:00:35;;;;;;;3.47;1.83;;;25.80;85.80;;;;;;5079171;27;89931;-60
2023/08/04 06:03:04;;;;;;;4.60;2.97;;;25.70;86.40;;;;;;5065655;27;89026;-61
2023/08/04 06:05:32;;;;;;;5.67;3.00;;;25.80;85.70;;;;;;5069576;27;88661;-60
2023/08/04 06:08:00;;;;;;;5.83;2.90;;;25.70;84.40;;;;;;5080935;27;87362;-60
2023/08/04 06:10:29;;;;;;;4.67;2.80;;;25.80;85.10;;;;;;5079915;27;89611;-60
2023/08/04 06:12:57;;;;;;;7.03;3.17;;;25.80;84.00;;;;;;5080870;27;90033;-60
2023/08/04 06:15:27;;;;;;;5.70;3.93;;;25.80;84.60;;;;;;5078555;27;90175;-60
2023/08/04 06:17:55;;;;;;;5.80;3.67;;;25.80;85.90;;;;;;5080122;27;87666;-61
2023/08/04 06:20:23;;;;;;;7.23;3.87;;;25.80;85.70;;;;;;5061510;27;89617;-60
2023/08/04 06:22:51;;;;;;;8.53;3.80;;;25.80;84.40;;;;;;5060925;27;89108;-60
2023/08/04 06:25:19;;;;;;;8.87;4.53;;;25.80;85.00;;;;;;5060945;27;88888;-61
2023/08/04 06:27:49;;;;;;;8.10;3.70;;;25.80;88.50;;;;;;5078513;27;87941;-60
2023/08/04 06:30:18;;;;;;;5.67;3.67;;;25.80;88.30;;;;;;5079875;27;89693;-59
2023/08/04 06:32:48;;;;;;;6.80;4.17;;;25.80;86.00;;;;;;5069219;27;89040;-59
2023/08/04 06:35:16;;;;;;;9.33;5.17;;;25.80;86.20;;;;;;5079617;27;88902;-59
2023/08/04 06:37:44;;;;;;;6.20;4.67;;;25.80;86.80;;;;;;5075002;27;88025;-59
2023/08/04 06:40:12;;;;;;;11.03;4.63;;;25.90;83.20;;;;;;5060372;27;89719;-59
2023/08/04 06:42:41;;;;;;;8.87;5.80;;;25.80;82.10;;;;;;5059588;27;89094;-60
2023/08/04 06:45:11;;;;;;;7.97;5.13;;;25.90;83.60;;;;;;5060544;27;88865;-60
2023/08/04 06:47:40;;;;;;;10.53;6.40;;;25.90;82.60;;;;;;5072152;27;88147;-60
2023/08/04 06:50:10;;;;;;;7.73;4.97;;;26.10;84.10;;;;;;5078700;27;89717;-60
2023/08/04 06:52:38;;;;;;;11.63;5.87;;;26.10;84.30;;;;;;5065757;27;89215;-59
2023/08/04 06:55:07;;;;;;;7.80;5.30;;;26.20;85.00;;;;;;5080964;27;87524;-60
2023/08/04 06:57:35;;;;;;;11.90;6.50;;;26.20;84.40;;;;;;5078789;27;87615;-60
2023/08/04 07:00:04;;;;;;;13.03;7.13;;;26.30;84.40;;;;;;5072421;27;89637;-60
2023/08/04 07:02:32;;;;;;;9.90;6.33;;;26.30;84.40;;;;;;5059917;27;89407;-60
2023/08/04 07:05:01;;;;;;;10.03;6.50;;;26.30;85.20;;;;;;5063491;27;90093;-60
2023/08/04 07:07:30;;;;;;;12.40;7.83;;;26.30;88.70;;;;;;5060484;27;87801;-60
2023/08/04 07:09:59;;;;;;;14.07;7.17;;;26.40;89.40;;;;;;5079921;27;88566;-60
2023/08/04 07:12:27;;;;;;;8.90;6.13;;;;;;;;;;5077629;27;89199;-60
2023/08/04 07:14:56;;;;;;;12.63;6.40;;;;;;;;;;5080094;27;89124;-60
2023/08/04 07:17:24;;;;;;;11.93;7.13;;;26.40;83.60;;;;;;5073685;27;87520;-60
2023/08/04 07:19:53;;;;;;;12.07;7.13;;;26.40;83.90;;;;;;5069652;27;89638;-60
2023/08/04 07:22:22;;;;;;;12.47;7.60;;;26.50;84.40;;;;;;5082997;27;88050;-60
2023/08/04 07:24:53;;;;;;;7.67;6.17;;;26.40;84.60;;;;;;5075936;27;88860;-59
2023/08/04 07:27:21;;;;;;;12.47;7.00;;;26.50;84.20;;;;;;5062761;27;87934;-60
2023/08/04 07:29:50;;;;;;;9.40;7.07;;;26.50;85.20;;;;;;5074902;27;89320;-60
2023/08/04 07:32:19;;;;;;;9.57;6.97;;;;;;;;;;5068511;27;89131;-60
2023/08/04 07:34:47;;;;;;;12.03;7.23;;;26.40;86.20;;;;;;5083365;27;88771;-60
2023/08/04 07:37:16;;;;;;;10.20;7.73;;;26.50;88.90;;;;;;5081153;27;88274;-60
2023/08/04 07:39:44;;;;;;;15.97;7.53;;;26.40;90.00;;;;;;5082081;27;89579;-60
2023/08/04 07:42:14;;;;;;;11.77;5.93;;;;;;;;;;5078611;27;89111;-60
2023/08/04 07:44:43;;;;;;;13.43;6.70;;;;;;;;;;5081168;27;89717;-61
2023/08/04 07:47:11;;;;;;;14.10;7.23;;;;;;;;;;5063764;27;87594;-58
2023/08/04 07:49:40;;;;;;;11.30;7.20;;;26.50;88.70;;;;;;5064268;27;90195;-59
2023/08/04 07:52:08;;;;;;;9.40;5.90;;;26.60;89.70;;;;;;5062563;27;90030;-58
2023/08/04 07:54:37;;;;;;;8.07;5.60;;;26.50;90.10;;;;;;5062992;27;89689;-58
2023/08/04 07:57:05;;;;;;;6.77;4.87;;;26.60;90.10;;;;;;5063451;27;87638;-58
2023/08/04 07:59:35;;;;;;;9.07;4.43;;;;;;;;;;5063949;27;89648;-58
2023/08/04 08:02:04;;;;;;;6.40;3.63;;;26.10;74.00;;;;;;5068021;27;89076;-58
2023/08/04 08:04:32;;;;;;;7.00;3.17;;;26.00;66.90;;;;;;5062885;27;88674;-58
2023/08/04 08:07:00;;;;;;;5.03;3.10;;;26.50;66.40;;;;;;5064283;27;87652;-58
2023/08/04 08:09:29;;;;;;;4.17;3.03;;;26.50;65.00;;;;;;5063291;27;89686;-58
2023/08/04 08:11:58;;;;;;;7.07;2.97;;;26.50;66.90;;;;;;5069800;27;88756;-58
2023/08/04 08:14:27;;;;;;;5.17;3.17;;;26.60;75.20;;;;;;5065215;27;89011;-61
2023/08/04 08:16:56;;;;;;;3.83;2.47;;;;;;;;;;5064545;27;87912;-60
2023/08/04 08:19:25;;;;;;;4.07;2.47;;;26.50;54.30;;;;;;5071310;27;89964;-60
2023/08/04 08:21:53;;;;;;;4.40;2.13;;;26.40;54.80;;;;;;5062151;27;87854;-60
2023/08/04 08:24:22;;;;;;;1.87;1.43;;;26.40;54.70;;;;;;5081148;27;88968;-60
2023/08/04 08:26:50;;;;;;;1.50;1.40;;;26.30;54.60;;;;;;5083264;27;87491;-60
2023/08/04 08:29:18;;;;;;;2.43;1.97;;;26.40;54.60;;;;;;5082440;27;89686;-60
2023/08/04 08:31:49;;;;;;;2.03;1.53;;;26.30;54.50;;;;;;5088158;27;89183;-60
2023/08/04 08:34:19;;;;;;;2.00;1.73;;;26.30;54.40;;;;;;5095619;27;88827;-60
2023/08/04 08:36:48;;;;;;;5.67;2.20;;;26.30;54.70;;;;;;5082224;27;87521;-60
2023/08/04 08:39:16;;;;;;;3.10;2.07;;;26.30;54.30;;;;;;5092274;27;89785;-60
2023/08/04 08:41:44;;;;;;;3.37;1.87;;;26.30;54.30;;;;;;5085645;27;90056;-60
2023/08/04 08:44:13;;;;;;;5.50;2.07;;;26.30;54.20;;;;;;5096173;27;88910;-60
2023/08/04 08:46:41;;;;;;;1.93;1.53;;;26.30;54.10;;;;;;5103179;27;87538;-60
2023/08/04 08:49:10;;;;;;;3.20;1.53;;;26.30;54.70;;;;;;5102808;27;89438;-60
2023/08/04 08:51:40;;;;;;;4.97;1.60;;;26.30;54.00;;;;;;5102931;27;88979;-60
2023/08/04 08:54:08;;;;;;;1.77;1.60;;;26.30;53.90;;;;;;5102401;27;88841;-60
2023/08/04 08:56:36;;;;;;;2.17;1.50;;;26.30;53.80;;;;;;5089962;27;87582;-60
2023/08/04 08:59:04;;;;;;;1.60;1.20;;;26.30;53.70;;;;;;5082177;27;89687;-60
2023/08/04 09:01:34;;;;;;;3.10;1.60;;;26.30;53.60;;;;;;5077978;27;87471;-60
2023/08/04 09:04:02;;;;;;;1.63;1.17;;;26.30;53.50;;;;;;5074674;27;88897;-60
2023/08/04 09:06:30;;;;;;;5.60;1.23;;;26.30;53.40;;;;;;5082457;27;87786;-59
2023/08/04 09:09:02;;;;;;;4.33;2.20;;;26.30;53.30;;;;;;5081723;27;89596;-60
2023/08/04 09:11:30;;;;;;;1.70;1.30;;;26.30;53.20;;;;;;5070121;27;89082;-60
2023/08/04 09:13:58;;;;;;;1.53;1.30;;;26.30;53.20;;;;;;5080762;27;88712;-60
2023/08/04 09:16:32;;;;;;;3.47;1.13;;;26.30;53.10;;;;;;5070422;27;87679;-60
2023/08/04 09:19:04;;;;;;;2.73;1.20;;;26.30;53.00;;;;;;5062274;27;89692;-60
2023/08/04 09:21:33;;;;;;;1.50;1.20;;;26.30;52.90;;;;;;5076754;27;89250;-60
2023/08/04 09:24:04;;;;;;;1.00;0.90;;;26.30;52.80;;;;;;5081208;27;88913;-60
2023/08/04 09:26:41;;;;;;;1.33;1.20;;;26.30;52.70;;;;;;5076925;27;87485;-60
2023/08/04 09:29:09;;;;;;;2.07;0.97;;;26.30;52.60;;;;;;5081835;27;89396;-59
2023/08/04 09:31:38;;;;;;;0.90;0.80;;;26.30;52.50;;;;;;5078184;27;89954;-60
2023/08/04 09:34:06;;;;;;;2.17;1.20;;;26.30;52.50;;;;;;5077040;27;89741;-60
2023/08/04 09:36:39;;;;;;;0.83;0.83;;;26.20;52.40;;;;;;5073467;27;88018;-60
2023/08/04 09:39:09;;;;;;;2.87;1.13;;;26.30;52.50;;;;;;5077997;27;89608;-60
2023/08/04 09:41:39;;;;;;;1.53;1.00;;;26.30;52.40;;;;;;5080200;27;88790;-60
2023/08/04 09:44:07;;;;;;;0.70;0.70;;;26.30;52.30;;;;;;5063483;27;90588;-60
2023/08/04 09:46:39;;;;;;;1.80;1.20;;;26.30;52.30;;;;;;5062413;27;87323;-60
2023/08/04 09:49:08;;;;;;;1.57;1.00;;;26.30;52.20;;;;;;5071584;27;89647;-60
2023/08/04 09:51:41;;;;;;;3.07;1.13;;;26.30;52.10;;;;;;5071254;27;87879;-60
2023/08/04 09:54:11;;;;;;;2.17;1.10;;;26.30;52.10;;;;;;5067049;27;88768;-60
2023/08/04 09:56:39;;;;;;;1.40;1.13;;;26.30;52.00;;;;;;5072033;27;87965;-60
2023/08/04 09:59:07;;;;;;;1.77;1.00;;;26.30;52.00;;;;;;5067800;27;89811;-62
2023/08/04 10:01:36;;;;;;;2.47;1.07;;;26.30;52.00;;;;;;5076971;27;89062;-60
2023/08/04 10:04:05;;;;;;;3.13;1.23;;;26.30;52.00;;;;;;5068595;27;88811;-60
2023/08/04 10:06:34;;;;;;;1.77;1.10;;;26.30;52.00;;;;;;5060519;27;87658;-60
2023/08/04 10:09:03;;;;;;;1.17;0.90;;;26.30;51.90;;;;;;5077649;27;89767;-60
2023/08/04 10:11:32;;;;;;;4.67;1.13;;;26.30;51.90;;;;;;5075175;27;89214;-60
2023/08/04 10:14:01;;;;;;;1.40;1.20;;;26.30;51.90;;;;;;5069358;27;89268;-60
2023/08/04 10:16:32;;;;;;;2.17;1.17;;;26.30;51.90;;;;;;5070561;27;87168;-60
2023/08/04 10:19:02;;;;;;;2.60;1.33;;;26.30;51.80;;;;;;5070560;27;89729;-60
2023/08/04 10:21:32;;;;;;;3.23;1.40;;;26.30;51.70;;;;;;5060887;27;90055;-60
2023/08/04 10:24:03;;;;;;;2.80;1.50;;;26.30;51.70;;;;;;5067185;27;88651;-60
2023/08/04 10:26:33;;;;;;;3.30;1.73;;;26.30;51.70;;;;;;5081565;27;87687;-60
2023/08/04 10:29:02;;;;;;;2.60;1.23;;;26.30;51.70;;;;;;5081528;27;89608;-60
2023/08/04 10:31:51;;;;;;;3.17;1.40;;;26.40;51.80;;;;;;5081389;27;89348;-60
2023/08/04 10:34:26;;;;;;;4.03;1.27;;;26.30;51.70;;;;;;5081401;27;89012;-60
2023/08/04 10:37:00;;;;;;;2.17;1.40;;;26.30;51.70;;;;;;5081084;27;87244;-61
2023/08/04 10:39:29;;;;;;;1.43;1.30;;;26.30;51.70;;;;;;5081355;27;89669;-60
2023/08/04 10:42:01;;;;;;;1.57;1.20;;;26.30;51.60;;;;;;5080743;27;89095;-60
2023/08/04 10:44:30;;;;;;;1.70;1.20;;;26.30;51.50;;;;;;5076671;27;88782;-60
2023/08/04 10:47:04;;;;;;;1.87;1.13;;;26.40;51.50;;;;;;5072808;27;87997;-60
2023/08/04 10:49:33;;;;;;;2.17;1.43;;;26.40;51.50;;;;;;5060495;27;89644;-60
2023/08/04 10:52:01;;;;;;;2.00;1.10;;;26.40;52.10;;;;;;5068913;27;89067;-60
2023/08/04 10:54:29;;;;;;;3.10;1.30;;;26.40;51.40;;;;;;5084409;27;88845;-59
2023/08/04 10:56:57;;;;;;;1.83;1.20;;;26.40;51.30;;;;;;5084163;27;87417;-60
2023/08/04 10:59:27;;;;;;;1.63;1.30;;;26.40;51.30;;;;;;5083973;27;89796;-61
2023/08/04 11:01:55;;;;;;;2.00;1.00;;;26.50;51.30;;;;;;5084110;27;89217;-61
2023/08/04 11:04:23;;;;;;;2.40;1.40;;;26.50;51.30;;;;;;5084171;27;89019;-61
2023/08/04 11:06:52;;;;;;;1.37;1.27;;;26.50;51.20;;;;;;5083794;27;87663;-60
2023/08/04 11:09:20;;;;;;;1.70;1.50;;;26.50;51.20;;;;;;5084046;27;89483;-60
2023/08/04 11:11:48;;;;;;;1.10;1.00;;;26.60;51.20;;;;;;5084176;27;90607;-60
2023/08/04 11:14:17;;;;;;;1.53;1.03;;;26.50;51.20;;;;;;5084159;27;89379;-60
2023/08/04 11:16:49;;;;;;;3.50;1.40;;;26.60;51.20;;;;;;5084465;27;87604;-60
2023/08/04 11:19:20;;;;;;;1.83;1.40;;;26.50;51.10;;;;;;5083674;27;89670;-60
2023/08/04 11:21:48;;;;;;;2.87;1.20;;;26.60;51.20;;;;;;5079041;27;89139;-61
2023/08/04 11:24:22;;;;;;;1.53;1.00;;;26.60;51.10;;;;;;5068488;27;88773;-61
2023/08/04 11:26:51;;;;;;;2.10;1.20;;;26.60;51.10;;;;;;5066504;27;87410;-60
2023/08/04 11:29:20;;;;;;;1.40;1.03;;;26.60;51.10;;;;;;5083985;27;88327;-61
2023/08/04 11:31:50;;;;;;;1.83;0.80;;;26.50;51.00;;;;;;5083434;27;89088;-60
2023/08/04 11:34:19;;;;;;;1.27;0.90;;;26.60;51.00;;;;;;5083213;27;88827;-61
2023/08/04 11:36:47;;;;;;;3.10;1.07;;;26.60;51.00;;;;;;5083804;27;87829;-61
2023/08/04 11:39:15;;;;;;;1.50;1.10;;;26.60;50.90;;;;;;5078233;27;89847;-60
2023/08/04 11:41:44;;;;;;;1.53;1.20;;;26.60;50.80;;;;;;5063221;27;87917;-60
2023/08/04 11:44:14;;;;;;;2.27;1.20;;;26.60;50.80;;;;;;5062059;27;88549;-61
2023/08/04 11:46:42;;;;;;;1.50;1.00;;;26.60;50.80;;;;;;5063215;27;87457;-61
2023/08/04 11:49:12;;;;;;;1.40;0.70;;;26.60;50.80;;;;;;5062840;27;89687;-61
2023/08/04 11:51:43;;;;;;;1.17;0.73;;;26.60;50.80;;;;;;5062721;27;89145;-61
2023/08/04 11:54:19;;;;;;;1.67;0.93;;;26.60;50.80;;;;;;5067141;27;89162;-61
2023/08/04 11:56:53;;;;;;;1.30;1.20;;;26.60;50.80;;;;;;5084213;27;87221;-61
2023/08/04 11:59:21;;;;;;;1.20;1.10;;;26.60;50.70;;;;;;5083356;27;89629;-61
2023/08/04 12:01:49;;;;;;;1.20;1.10;;;26.60;50.80;;;;;;5082963;27;89972;-61
2023/08/04 12:04:35;;;;;;;4.30;1.10;;;26.60;50.70;;;;;;5082763;27;89758;-61
2023/08/04 12:07:05;;;;;;;1.50;1.10;;;26.60;50.70;;;;;;5083479;27;87662;-61
2023/08/04 12:09:34;;;;;;;3.77;1.00;;;26.60;50.70;;;;;;5083169;27;89572;-61
2023/08/04 12:12:02;;;;;;;2.93;0.80;;;26.60;50.70;;;;;;5083830;27;89197;-60
2023/08/04 12:14:31;;;;;;;1.90;1.07;;;26.60;50.70;;;;;;5083657;27;88851;-61
2023/08/04 12:17:06;;;;;;;0.80;0.80;;;26.60;50.60;;;;;;5082757;27;87221;-61
2023/08/04 12:19:35;;;;;;;2.60;0.90;;;26.60;50.60;;;;;;5083591;27;89600;-61
2023/08/04 12:22:04;;;;;;;1.23;0.93;;;26.60;50.60;;;;;;5082494;27;89066;-61
2023/08/04 12:24:33;;;;;;;1.30;1.03;;;26.60;50.60;;;;;;5082752;27;88844;-61
2023/08/04 12:27:01;;;;;;;1.30;0.60;;;26.60;50.60;;;;;;5083009;27;88000;-61
2023/08/04 12:29:29;;;;;;;1.33;0.93;;;26.70;50.70;;;;;;5083396;27;88197;-61
2023/08/04 12:31:57;;;;;;;1.50;0.90;;;26.70;50.60;;;;;;5083233;27;88784;-61
2023/08/04 12:34:26;;;;;;;1.77;0.97;;;26.60;50.50;;;;;;5083554;27;88664;-61
2023/08/04 12:36:56;;;;;;;1.03;0.60;;;26.60;50.50;;;;;;5083500;27;87615;-61
2023/08/04 12:39:25;;;;;;;1.77;0.77;;;26.70;50.60;;;;;;5083182;27;89735;-61
2023/08/04 12:41:53;;;;;;;0.40;0.40;;;26.70;50.60;;;;;;5082358;27;89130;-61
2023/08/04 12:44:21;;;;;;;1.27;0.83;;;26.70;50.60;;;;;;5082466;27;87306;-61
2023/08/04 12:46:50;;;;;;;2.20;0.80;;;26.70;50.50;;;;;;5081918;27;87695;-61
2023/08/04 12:49:19;;;;;;;0.53;0.53;;;26.70;50.50;;;;;;5082855;27;88615;-61
2023/08/04 12:51:47;;;;;;;0.70;0.60;;;26.70;50.50;;;;;;5082034;27;89023;-61
2023/08/04 12:54:18;;;;;;;0.60;0.60;;;26.70;50.60;;;;;;5082913;27;89710;-61
2023/08/04 12:56:46;;;;;;;1.07;0.60;;;26.70;50.50;;;;;;5080615;27;87950;-61
2023/08/04 12:59:14;;;;;;;1.90;0.87;;;26.70;50.50;;;;;;5077979;27;89402;-61